Time;durP1;ratioP1;P1;durP2;ratioP2;P2;SDS_P1;SDS_P2;PMS_P1;PMS_P2;Temp;Humidity;BMP_temperature;BMP_pressure;BME280_temperature;BME280_humidity;BME280_pressure;Samples;Min_cycle;Max_cycle;Signal;HPM_P1;HPM_P2
2024/02/29 00:01:42;;;;;;;;;;;;;;;13.29;68.21;100881.81;4841264;29;19920;-78
2024/02/29 00:04:34;;;;;;;;;;;;;;;13.31;67.86;100879.56;4844681;29;19916;-77
2024/02/29 00:07:26;;;;;;;;;;;;;;;13.28;67.65;100877.50;4841279;29;19916;-78
2024/02/29 00:10:18;;;;;;;;;;;;;;;13.31;68.00;100885.00;4845713;29;19920;-79
2024/02/29 00:13:10;;;;;;;;;;;;;;;13.37;67.40;100883.69;4844064;29;19916;-78
2024/02/29 00:16:03;;;;;;;;;;;;;;;13.35;67.80;100879.72;4841750;29;20386;-78
2024/02/29 00:18:55;;;;;;;;;;;;;;;13.31;67.37;100876.81;4844819;29;19920;-78
2024/02/29 00:21:46;;;;;;;;;;;;;;;13.31;67.58;100865.91;4842861;29;19917;-78
2024/02/29 00:24:38;;;;;;;;;;;;;;;13.30;67.44;100867.06;4840732;29;19924;-78
2024/02/29 00:27:30;;;;;;;;;;;;;;;13.33;67.41;100862.84;4843959;29;19942;-77
2024/02/29 00:30:22;;;;;;;;;;;;;;;13.23;68.03;100859.38;4846510;29;19920;-78
2024/02/29 00:33:14;;;;;;;;;;;;;;;13.33;67.57;100860.91;4840627;29;20310;-78
2024/02/29 00:36:06;;;;;;;;;;;;;;;13.37;67.05;100856.38;4843478;29;19917;-77
2024/02/29 00:38:55;;;;;;;;;;;;;;;13.32;67.42;100859.31;4840924;29;20394;-77
2024/02/29 00:41:47;;;;;;;;;;;;;;;13.36;67.08;100860.25;4843773;29;19916;-77
2024/02/29 00:44:39;;;;;;;;;;;;;;;13.33;67.01;100860.13;4842962;29;19920;-78
2024/02/29 00:47:31;;;;;;;;;;;;;;;13.34;67.16;100861.72;4840798;29;19917;-78
2024/02/29 00:50:23;;;;;;;;;;;;;;;13.34;67.38;100856.25;4844370;29;19924;-77
2024/02/29 00:53:15;;;;;;;;;;;;;;;13.38;66.66;100860.72;4842207;29;19916;-78
2024/02/29 00:56:04;;;;;;;;;;;;;;;13.37;66.65;100855.59;4840347;29;20015;-78
2024/02/29 00:58:56;;;;;;;;;;;;;;;13.37;66.69;100845.47;4845855;29;20383;-78
2024/02/29 01:01:48;;;;;;;;;;;;;;;13.38;66.67;100836.16;4841482;29;19925;-77
2024/02/29 01:04:40;;;;;;;;;;;;;;;13.34;66.95;100829.75;4844710;29;19916;-79
2024/02/29 01:07:32;;;;;;;;;;;;;;;13.46;66.71;100831.78;4840287;29;19916;-77
2024/02/29 01:10:24;;;;;;;;;;;;;;;13.38;66.39;100825.22;4843814;29;19921;-79
2024/02/29 01:13:16;;;;;;;;;;;;;;;13.41;66.10;100830.00;4847608;29;19916;-78
2024/02/29 01:16:08;;;;;;;;;;;;;;;13.41;66.11;100829.22;4845610;29;19920;-78
2024/02/29 01:19:01;;;;;;;;;;;;;;;13.40;66.14;100812.03;4843126;29;19924;-77
2024/02/29 01:21:53;;;;;;;;;;;;;;;13.43;66.19;100816.81;4846584;29;20295;-78
2024/02/29 01:24:45;;;;;;;;;;;;;;;13.42;66.23;100811.69;4844518;29;19920;-77
2024/02/29 01:27:36;;;;;;;;;;;;;;;13.49;65.90;100809.25;4848057;29;19917;-78
2024/02/29 01:30:29;;;;;;;;;;;;;;;13.36;66.05;100811.06;4845919;29;20390;-77
2024/02/29 01:33:20;;;;;;;;;;;;;;;13.41;65.99;100810.88;4843790;29;19920;-77
2024/02/29 01:36:10;;;;;;;;;;;;;;;13.39;66.99;100799.50;4847009;29;19917;-78
2024/02/29 01:39:02;;;;;;;;;;;;;;;13.38;66.77;100797.91;4844754;29;19920;-77
2024/02/29 01:41:55;;;;;;;;;;;;;;;13.39;66.49;100795.97;4842883;29;19920;-77
2024/02/29 01:44:53;;;;;;;;;;;;;;;13.49;65.90;100784.66;4846348;29;20379;-78
2024/02/29 01:47:45;;;;;;;;;;;;;;;13.52;65.68;100786.72;4843346;29;19920;-77
2024/02/29 01:50:38;;;;;;;;;;;;;;;13.55;65.53;100778.66;4847378;29;19916;-77
2024/02/29 01:53:30;;;;;;;;;;;;;;;13.59;65.81;100771.41;4844997;29;19916;-78
2024/02/29 01:56:22;;;;;;;;;;;;;;;13.56;65.51;100761.13;4842936;29;19917;-78
2024/02/29 01:59:13;;;;;;;;;;;;;;;13.45;66.23;100759.94;4846189;29;19920;-77
2024/02/29 02:02:03;;;;;;;;;;;;;;;13.38;66.74;100754.19;4844491;29;19939;-77
2024/02/29 02:04:55;;;;;;;;;;;;;;;13.43;66.28;100755.94;4847413;29;19916;-77
2024/02/29 02:07:47;;;;;;;;;;;;;;;13.44;66.52;100752.06;4845315;29;19917;-78
2024/02/29 02:10:39;;;;;;;;;;;;;;;13.38;66.48;100742.47;4843659;29;19920;-78
2024/02/29 02:13:30;;;;;;;;;;;;;;;13.41;66.56;100747.28;4846874;29;20394;-77
2024/02/29 02:16:20;;;;;;;;;;;;;;;13.46;66.24;100739.66;4848515;29;19924;-77
2024/02/29 02:19:13;;;;;;;;;;;;;;;13.39;66.58;100733.94;4842517;29;19924;-78
2024/02/29 02:22:05;;;;;;;;;;;;;;;13.42;66.13;100729.75;4843951;29;19921;-78
2024/02/29 02:24:57;;;;;;;;;;;;;;;13.44;65.98;100732.94;4844271;29;19920;-78
2024/02/29 02:27:49;;;;;;;;;;;;;;;13.44;65.84;100725.56;4847036;29;19917;-78
2024/02/29 02:30:41;;;;;;;;;;;;;;;13.45;65.18;100720.91;4845525;29;19916;-77
2024/02/29 02:33:32;;;;;;;;;;;;;;;13.47;65.93;100724.88;4843942;29;19916;-78
2024/02/29 02:36:24;;;;;;;;;;;;;;;13.54;65.18;100711.50;4846824;29;19917;-77
2024/02/29 02:39:16;;;;;;;;;;;;;;;13.47;65.60;100708.50;4844162;29;19920;-78
2024/02/29 02:42:08;;;;;;;;;;;;;;;13.51;65.43;100714.88;4829005;29;20371;-78
2024/02/29 02:45:00;;;;;;;;;;;;;;;13.53;65.18;100712.63;4845920;29;19916;-77
2024/02/29 02:47:52;;;;;;;;;;;;;;;13.47;65.14;100721.34;4843552;29;19920;-77
2024/02/29 02:50:43;;;;;;;;;;;;;;;13.48;65.66;100717.47;4847173;29;19916;-77
2024/02/29 02:53:35;;;;;;;;;;;;;;;13.41;65.67;100718.00;4844857;29;19916;-78
2024/02/29 02:56:27;;;;;;;;;;;;;;;13.49;65.63;100716.34;4842830;29;20387;-78
2024/02/29 02:59:19;;;;;;;;;;;;;;;13.41;66.21;100715.28;4845762;29;19924;-77
2024/02/29 03:02:11;;;;;;;;;;;;;;;13.41;66.20;100693.44;4850237;29;19916;-78
2024/02/29 03:05:03;;;;;;;;;;;;;;;13.43;66.47;100699.38;4860566;29;19920;-77
2024/02/29 03:07:54;;;;;;;;;;;;;;;13.42;66.36;100697.75;4863575;29;19924;-77
2024/02/29 03:10:46;;;;;;;;;;;;;;;13.42;65.72;100695.03;4861921;29;19920;-77
2024/02/29 03:13:38;;;;;;;;;;;;;;;13.38;66.13;100691.38;4859752;29;19920;-78
2024/02/29 03:16:27;;;;;;;;;;;;;;;13.33;66.10;100694.31;4863500;29;19916;-77
2024/02/29 03:19:19;;;;;;;;;;;;;;;13.33;66.29;100694.31;4860817;29;19924;-76
2024/02/29 03:22:09;;;;;;;;;;;;;;;13.35;66.99;100699.44;4843703;29;19916;-77
2024/02/29 03:25:06;;;;;;;;;;;;;;;13.25;67.00;100698.72;4843762;29;19916;-77
2024/02/29 03:27:57;;;;;;;;;;;;;;;13.28;67.77;100700.78;4841538;29;19916;-77
2024/02/29 03:30:49;;;;;;;;;;;;;;;13.24;67.15;100699.03;4845081;29;20395;-78
2024/02/29 03:33:41;;;;;;;;;;;;;;;13.36;66.76;100703.78;4842756;29;20556;-78
2024/02/29 03:36:33;;;;;;;;;;;;;;;13.46;66.32;100695.19;4846172;29;19920;-76
2024/02/29 03:39:25;;;;;;;;;;;;;;;13.42;66.07;100688.78;4844110;29;20391;-77
2024/02/29 03:42:17;;;;;;;;;;;;;;;13.44;65.99;100687.31;4842341;29;19917;-77
2024/02/29 03:45:09;;;;;;;;;;;;;;;13.35;66.28;100689.31;4846731;29;19924;-77
2024/02/29 03:48:00;;;;;;;;;;;;;;;13.36;66.35;100679.22;4842545;29;20382;-77
2024/02/29 03:50:52;;;;;;;;;;;;;;;13.31;67.03;100677.44;4841227;29;19916;-77
2024/02/29 03:53:44;;;;;;;;;;;;;;;13.33;66.85;100677.91;4844600;29;20298;-77
2024/02/29 03:56:36;;;;;;;;;;;;;;;13.34;66.99;100671.34;4846723;29;19916;-77
2024/02/29 03:59:28;;;;;;;;;;;;;;;13.36;66.66;100663.59;4840392;29;19924;-77
2024/02/29 04:02:20;;;;;;;;;;;;;;;13.22;66.66;100668.53;4842662;29;20314;-77
2024/02/29 04:05:12;;;;;;;;;;;;;;;13.22;67.11;100668.53;4841846;29;19916;-77
2024/02/29 04:08:04;;;;;;;;;;;;;;;13.22;67.79;100665.81;4844756;29;20383;-77
2024/02/29 04:10:55;;;;;;;;;;;;;;;13.27;68.14;100660.94;4840640;29;19916;-77
2024/02/29 04:13:47;;;;;;;;;;;;;;;13.20;68.20;100663.44;4846220;29;19912;-77
2024/02/29 04:16:39;;;;;;;;;;;;;;;13.20;67.79;100674.34;4844460;29;19924;-77
2024/02/29 04:19:31;;;;;;;;;;;;;;;13.19;67.98;100672.75;4842202;29;20305;-77
2024/02/29 04:22:23;;;;;;;;;;;;;;;13.18;67.68;100662.94;4840227;29;19917;-77
2024/02/29 04:25:15;;;;;;;;;;;;;;;13.19;67.75;100659.09;4843786;29;19917;-76
2024/02/29 04:28:12;;;;;;;;;;;;;;;13.16;68.53;100667.13;4841650;29;19917;-77
2024/02/29 04:31:04;;;;;;;;;;;;;;;13.12;68.63;100658.81;4844857;29;19917;-77
2024/02/29 04:33:54;;;;;;;;;;;;;;;13.23;68.03;100659.22;4842877;29;20306;-77
2024/02/29 04:36:46;;;;;;;;;;;;;;;13.25;67.63;100654.22;4840797;29;20387;-77
2024/02/29 04:39:38;;;;;;;;;;;;;;;13.14;67.57;100656.56;4843917;29;19920;-77
2024/02/29 04:42:30;;;;;;;;;;;;;;;13.16;67.55;100653.47;4842101;29;20310;-77
2024/02/29 04:45:21;;;;;;;;;;;;;;;13.14;67.59;100651.09;4843189;29;19917;-78
2024/02/29 04:48:15;;;;;;;;;;;;;;;13.11;67.66;100656.38;4842816;29;19935;-77
2024/02/29 04:51:07;;;;;;;;;;;;;;;13.21;67.75;100647.81;4844878;29;20593;-77
2024/02/29 04:53:59;;;;;;;;;;;;;;;13.14;68.18;100647.56;4848284;29;19921;-78
2024/02/29 04:56:51;;;;;;;;;;;;;;;13.17;67.80;100650.44;4846041;29;19920;-78
2024/02/29 04:59:43;;;;;;;;;;;;;;;13.15;67.50;100649.19;4844044;29;19920;-77
2024/02/29 05:02:35;;;;;;;;;;;;;;;13.16;67.71;100645.28;4844907;29;19916;-77
2024/02/29 05:05:27;;;;;;;;;;;;;;;13.17;67.80;100652.34;4845265;29;19921;-77
2024/02/29 05:08:19;;;;;;;;;;;;;;;13.14;67.96;100661.22;4848238;29;19916;-77
2024/02/29 05:11:14;;;;;;;;;;;;;;;13.10;67.87;100665.72;4846253;29;20382;-77
2024/02/29 05:14:06;;;;;;;;;;;;;;;13.29;67.96;100668.81;4844460;29;19931;-77
2024/02/29 05:16:56;;;;;;;;;;;;;;;13.53;68.54;100673.56;4847568;29;20391;-78
2024/02/29 05:19:48;;;;;;;;;;;;;;;13.36;68.59;100681.94;4845078;29;19920;-77
2024/02/29 05:22:40;;;;;;;;;;;;;;;13.25;68.85;100685.06;4841247;29;19916;-77
2024/02/29 05:25:32;;;;;;;;;;;;;;;13.03;69.76;100684.56;4845968;29;19920;-76
2024/02/29 05:28:27;;;;;;;;;;;;;;;12.97;70.06;100688.59;4840147;29;19920;-77
2024/02/29 05:31:20;;;;;;;;;;;;;;;13.02;70.48;100693.88;4847551;29;19916;-77
2024/02/29 05:34:12;;;;;;;;;;;;;;;13.12;70.48;100697.03;4845039;29;19920;-75
2024/02/29 05:37:04;;;;;;;;;;;;;;;13.12;70.45;100691.59;4843640;29;19916;-78
2024/02/29 05:39:56;;;;;;;;;;;;;;;13.00;70.65;100696.16;4846710;29;19950;-77
2024/02/29 05:42:50;;;;;;;;;;;;;;;12.89;71.52;100700.41;4825378;29;19917;-77
2024/02/29 05:45:42;;;;;;;;;;;;;;;12.87;71.55;100706.16;4829815;29;19921;-77
2024/02/29 05:48:35;;;;;;;;;;;;;;;12.93;72.03;100723.97;4860796;29;19920;-78
2024/02/29 05:51:26;;;;;;;;;;;;;;;12.95;71.91;100729.09;4862244;29;19916;-78
2024/02/29 05:54:18;;;;;;;;;;;;;;;13.02;71.38;100729.34;4866427;29;19919;-78
2024/02/29 05:57:08;;;;;;;;;;;;;;;12.93;71.34;100734.06;4864570;29;19920;-77
2024/02/29 06:00:00;;;;;;;;;;;;;;;12.91;70.71;100739.06;4847667;29;19925;-77
2024/02/29 06:02:49;;;;;;;;;;;;;;;12.90;70.82;100732.78;4835379;29;19917;-79
2024/02/29 06:05:41;;;;;;;;;;;;;;;12.95;69.98;100748.22;4844244;29;19924;-77
2024/02/29 06:08:29;;;;;;;;;;;;;;;13.15;68.22;100742.00;4842703;29;19916;-78
2024/02/29 06:11:21;;;;;;;;;;;;;;;13.09;67.65;100740.56;4846137;29;20309;-77
2024/02/29 06:14:13;;;;;;;;;;;;;;;13.27;66.96;100742.88;4844191;29;19916;-77
2024/02/29 06:17:05;;;;;;;;;;;;;;;13.43;66.72;100734.88;4847183;29;19924;-78
2024/02/29 06:19:57;;;;;;;;;;;;;;;13.45;65.65;100749.00;4845256;29;20490;-79
2024/02/29 06:22:49;;;;;;;;;;;;;;;13.57;66.51;100751.78;4843270;29;19924;-78
2024/02/29 06:25:42;;;;;;;;;;;;;;;13.51;65.72;100763.28;4846777;29;19917;-77
2024/02/29 06:28:34;;;;;;;;;;;;;;;13.80;65.78;100770.59;4843004;29;19924;-79
2024/02/29 06:31:26;;;;;;;;;;;;;;;13.85;65.56;100773.09;4842468;29;20306;-78
2024/02/29 06:34:18;;;;;;;;;;;;;;;13.81;64.43;100783.91;4845124;29;19920;-80
2024/02/29 06:37:10;;;;;;;;;;;;;;;13.90;63.75;100772.91;4843979;29;19920;-79
2024/02/29 06:40:07;;;;;;;;;;;;;;;14.02;62.64;100768.25;4847035;29;19920;-79
2024/02/29 06:42:59;;;;;;;;;;;;;;;14.12;62.58;100772.50;4842453;29;19924;-79
2024/02/29 06:45:51;;;;;;;;;;;;;;;14.07;62.08;100769.97;4847815;29;19916;-79
2024/02/29 06:48:43;;;;;;;;;;;;;;;14.22;61.95;100768.56;4845451;29;19916;-78
2024/02/29 06:51:35;;;;;;;;;;;;;;;14.26;62.18;100773.03;4845840;29;19916;-78
2024/02/29 06:54:27;;;;;;;;;;;;;;;14.35;61.80;100770.97;4860226;29;19916;-79
2024/02/29 06:57:19;;;;;;;;;;;;;;;14.32;61.88;100770.88;4863680;29;19921;-78
2024/02/29 07:00:11;;;;;;;;;;;;;;;14.32;62.21;100765.41;4861294;29;19924;-78
2024/02/29 07:03:02;;;;;;;;;;;;;;;14.38;62.04;100764.84;4860307;29;19916;-78
2024/02/29 07:05:54;;;;;;;;;;;;;;;14.31;62.02;100769.25;4862571;29;19920;-78
2024/02/29 07:08:46;;;;;;;;;;;;;;;14.39;62.04;100771.94;4842827;29;20394;-78
2024/02/29 07:11:38;;;;;;;;;;;;;;;14.46;62.18;100774.91;4845201;29;20387;-78
2024/02/29 07:14:30;;;;;;;;;;;;;;;14.40;62.25;100772.72;4843447;29;19920;-78
2024/02/29 07:17:20;;;;;;;;;;;;;;;14.43;61.79;100772.03;4841243;29;19916;-78
2024/02/29 07:20:12;;;;;;;;;;;;;;;14.66;61.78;100778.69;4844804;29;20398;-78
2024/02/29 07:23:04;;;;;;;;;;;;;;;14.68;61.45;100772.91;4841325;29;20318;-78
2024/02/29 07:25:59;;;;;;;;;;;;;;;14.80;61.34;100781.91;4845938;29;19921;-78
2024/02/29 07:28:51;;;;;;;;;;;;;;;14.80;61.23;100781.09;4843429;29;20322;-78
2024/02/29 07:31:41;;;;;;;;;;;;;;;14.79;60.95;100785.78;4841687;29;20299;-78
2024/02/29 07:34:38;;;;;;;;;;;;;;;14.72;60.81;100790.22;4844938;29;19916;-78
2024/02/29 07:37:33;;;;;;;;;;;;;;;14.70;60.98;100776.88;4842449;29;19924;-78
2024/02/29 07:40:25;;;;;;;;;;;;;;;14.82;61.14;100785.09;4846010;29;19925;-78
2024/02/29 07:43:17;;;;;;;;;;;;;;;14.69;60.65;100779.94;4843665;29;19920;-78
2024/02/29 07:46:09;;;;;;;;;;;;;;;14.77;60.33;100781.78;4841685;29;19916;-78
2024/02/29 07:49:01;;;;;;;;;;;;;;;14.77;60.48;100787.25;4844921;29;19916;-78
2024/02/29 07:51:53;;;;;;;;;;;;;;;14.86;61.25;100779.72;4842994;29;19917;-78
2024/02/29 07:54:48;;;;;;;;;;;;;;;14.79;60.70;100779.50;4840725;29;19916;-79
2024/02/29 07:57:40;;;;;;;;;;;;;;;14.83;60.63;100781.19;4843628;29;19920;-78
2024/02/29 08:00:32;;;;;;;;;;;;;;;14.80;60.75;100781.09;4842197;29;19920;-78
2024/02/29 08:03:24;;;;;;;;;;;;;;;14.83;60.50;100777.69;4844141;29;19916;-78
2024/02/29 08:06:16;;;;;;;;;;;;;;;14.85;60.73;100776.19;4843146;29;19925;-78
2024/02/29 08:09:08;;;;;;;;;;;;;;;14.98;60.20;100777.00;4840810;29;20314;-78
2024/02/29 08:12:00;;;;;;;;;;;;;;;15.01;60.30;100770.84;4843627;29;19916;-79
2024/02/29 08:14:55;;;;;;;;;;;;;;;15.10;60.48;100774.25;4842505;29;20298;-78
2024/02/29 08:17:46;;;;;;;;;;;;;;;15.15;60.02;100778.69;4839992;29;19920;-78
2024/02/29 08:20:38;;;;;;;;;;;;;;;15.05;59.43;100769.00;4843822;29;19924;-78
2024/02/29 08:23:30;;;;;;;;;;;;;;;15.08;59.88;100778.47;4841923;29;20290;-78
2024/02/29 08:26:22;;;;;;;;;;;;;;;15.10;59.77;100778.91;4844910;29;19916;-78
2024/02/29 08:29:14;;;;;;;;;;;;;;;15.06;60.07;100767.84;4842659;29;19921;-78
2024/02/29 08:32:06;;;;;;;;;;;;;;;15.13;60.48;100768.09;4841451;29;19920;-78
2024/02/29 08:34:55;;;;;;;;;;;;;;;15.13;60.05;100772.78;4844348;29;19976;-78
2024/02/29 08:37:47;;;;;;;;;;;;;;;15.18;60.15;100769.78;4842296;29;20291;-79
2024/02/29 08:40:39;;;;;;;;;;;;;;;15.16;60.07;100772.88;4840422;29;19932;-78
2024/02/29 08:43:31;;;;;;;;;;;;;;;15.15;60.37;100770.47;4843752;29;19917;-78
2024/02/29 08:46:23;;;;;;;;;;;;;;;15.18;60.31;100776.06;4841642;29;19916;-78
2024/02/29 08:49:15;;;;;;;;;;;;;;;15.24;60.06;100769.19;4844824;29;19916;-78
2024/02/29 08:52:07;;;;;;;;;;;;;;;15.20;59.24;100771.03;4843030;29;19921;-78
2024/02/29 08:54:59;;;;;;;;;;;;;;;15.14;60.15;100774.34;4840730;29;19916;-78
2024/02/29 08:57:51;;;;;;;;;;;;;;;15.08;60.60;100776.53;4843670;29;19920;-78
2024/02/29 09:00:43;;;;;;;;;;;;;;;15.05;60.38;100776.41;4842541;29;20303;-78
2024/02/29 09:03:35;;;;;;;;;;;;;;;14.91;59.55;100763.88;4839974;29;19920;-78
2024/02/29 09:06:24;;;;;;;;;;;;;;;14.94;60.59;100771.41;4843132;29;19916;-78
2024/02/29 09:09:16;;;;;;;;;;;;;;;14.96;60.80;100769.13;4841168;29;19916;-78
2024/02/29 09:12:08;;;;;;;;;;;;;;;15.03;61.13;100775.97;4842593;29;19920;-78
2024/02/29 09:15:00;;;;;;;;;;;;;;;15.01;61.04;100764.56;4842945;29;19924;-78
2024/02/29 09:17:52;;;;;;;;;;;;;;;15.07;60.15;100766.72;4840344;29;19920;-78
2024/02/29 09:20:44;;;;;;;;;;;;;;;15.10;60.42;100774.25;4844190;29;20375;-79
2024/02/29 09:23:38;;;;;;;;;;;;;;;15.12;60.78;100763.75;4841898;29;19935;-78
2024/02/29 09:26:30;;;;;;;;;;;;;;;15.12;59.82;100763.75;4839622;29;19920;-79
2024/02/29 09:29:22;;;;;;;;;;;;;;;15.14;60.04;100755.97;4843072;29;19917;-78
2024/02/29 09:32:14;;;;;;;;;;;;;;;15.17;59.89;100758.03;4844518;29;19920;-79
2024/02/29 09:35:03;;;;;;;;;;;;;;;15.19;59.59;100753.00;4847938;29;19916;-77
2024/02/29 09:37:55;;;;;;;;;;;;;;;15.20;60.30;100746.38;4845856;29;19916;-79
2024/02/29 09:40:47;;;;;;;;;;;;;;;15.28;59.70;100752.88;4849147;29;19920;-78
2024/02/29 09:43:39;;;;;;;;;;;;;;;15.39;58.74;100751.25;4847088;29;20398;-78
2024/02/29 09:46:29;;;;;;;;;;;;;;;15.45;58.94;100746.31;4844987;29;19924;-78
2024/02/29 09:49:21;;;;;;;;;;;;;;;15.50;59.37;100743.34;4842632;29;19921;-79
2024/02/29 09:52:11;;;;;;;;;;;;;;;15.56;58.89;100737.28;4845326;29;20403;-79
2024/02/29 09:55:06;;;;;;;;;;;;;;;15.69;58.66;100724.34;4844166;29;19916;-79
2024/02/29 09:57:59;;;;;;;;;;;;;;;15.83;58.38;100735.72;4847171;29;19916;-78
2024/02/29 10:00:51;;;;;;;;;;;;;;;15.88;57.83;100724.50;4845530;29;19924;-77
2024/02/29 10:03:45;;;;;;;;;;;;;;;15.97;56.66;100725.13;4843273;29;19946;-78
2024/02/29 10:06:36;;;;;;;;;;;;;;;16.05;57.11;100724.16;4845161;29;19934;-78
2024/02/29 10:09:30;;;;;;;;;;;;;;;16.02;55.69;100708.41;4843154;29;20386;-78
2024/02/29 10:12:22;;;;;;;;;;;;;;;16.13;55.84;100709.50;4837107;29;19921;-77
2024/02/29 10:15:12;;;;;;;;;;;;;;;16.19;56.17;100705.34;4846099;29;20406;-78
2024/02/29 10:18:05;;;;;;;;;;;;;;;16.29;55.84;100698.53;4843377;29;19920;-78
2024/02/29 10:20:56;;;;;;;;;;;;;;;16.33;55.66;100701.34;4846547;29;19920;-78
2024/02/29 10:23:53;;;;;;;;;;;;;;;16.34;55.44;100700.22;4842876;29;20302;-77
2024/02/29 10:26:46;;;;;;;;;;;;;;;16.33;55.00;100701.34;4842647;29;20302;-78
2024/02/29 10:29:37;;;;;;;;;;;;;;;16.34;54.75;100694.72;4845692;29;19920;-78
2024/02/29 10:32:29;;;;;;;;;;;;;;;16.31;55.76;100695.41;4843719;29;19924;-78
2024/02/29 10:35:25;;;;;;;;;;;;;;;16.35;55.63;100699.06;4838690;29;19920;-77
2024/02/29 10:38:17;;;;;;;;;;;;;;;16.35;55.48;100686.13;4837258;29;19921;-77
2024/02/29 10:41:09;;;;;;;;;;;;;;;16.39;56.17;100683.47;4838648;29;20387;-78
2024/02/29 10:44:03;;;;;;;;;;;;;;;16.40;56.45;100682.31;4840196;29;19920;-77
2024/02/29 10:46:55;;;;;;;;;;;;;;;16.42;56.72;100685.50;4840617;29;19920;-78
2024/02/29 10:49:49;;;;;;;;;;;;;;;16.39;56.54;100677.97;4839738;29;19916;-77
2024/02/29 10:52:40;;;;;;;;;;;;;;;16.35;55.11;100674.38;4837716;29;20342;-78
2024/02/29 10:55:32;;;;;;;;;;;;;;;16.37;55.59;100663.81;4836229;29;19916;-77
2024/02/29 10:58:28;;;;;;;;;;;;;;;16.45;55.77;100663.66;4837794;29;19924;-78
2024/02/29 11:01:17;;;;;;;;;;;;;;;16.47;56.22;100660.53;4838349;29;19920;-77
2024/02/29 11:04:10;;;;;;;;;;;;;;;16.46;55.64;100654.22;4840914;29;19916;-80
2024/02/29 11:07:02;;;;;;;;;;;;;;;16.53;55.32;100653.63;4835272;29;19917;-79
2024/02/29 11:09:55;;;;;;;;;;;;;;;16.56;55.90;100645.44;4839621;29;19920;-78
2024/02/29 11:12:48;;;;;;;;;;;;;;;16.58;55.31;100634.94;4837922;29;19935;-78
2024/02/29 11:15:40;;;;;;;;;;;;;;;16.60;54.44;100635.41;4841403;29;19920;-79
2024/02/29 11:18:32;;;;;;;;;;;;;;;16.60;54.76;100640.09;4842321;29;19916;-79
2024/02/29 11:21:28;;;;;;;;;;;;;;;16.59;54.25;100619.28;4845702;29;19920;-78
2024/02/29 11:24:21;;;;;;;;;;;;;;;16.62;54.73;100608.38;4843654;29;19920;-78
2024/02/29 11:27:14;;;;;;;;;;;;;;;16.67;54.42;100601.78;4835993;29;19921;-80
2024/02/29 11:30:06;;;;;;;;;;;;;;;16.72;54.02;100606.22;4841244;29;19916;-80
2024/02/29 11:32:55;;;;;;;;;;;;;;;16.76;54.63;100602.38;4837179;29;19920;-78
2024/02/29 11:35:48;;;;;;;;;;;;;;;16.81;54.83;100593.84;4840836;29;20390;-79
2024/02/29 11:38:38;;;;;;;;;;;;;;;16.84;54.05;100584.13;4842284;29;19920;-78
2024/02/29 11:41:33;;;;;;;;;;;;;;;16.94;52.01;100592.59;4833712;29;19920;-79
2024/02/29 11:44:25;;;;;;;;;;;;;;;17.03;51.81;100582.16;4837142;29;19920;-79
2024/02/29 11:47:15;;;;;;;;;;;;;;;17.08;52.25;100578.34;4836583;29;20373;-78
2024/02/29 11:50:04;;;;;;;;;;;;;;;17.13;50.78;100577.25;4841825;29;19916;-78
2024/02/29 11:53:00;;;;;;;;;;;;;;;17.21;51.19;100584.50;4841406;29;19921;-78
2024/02/29 11:55:52;;;;;;;;;;;;;;;17.20;51.05;100574.66;4842624;29;20003;-79
2024/02/29 11:58:44;;;;;;;;;;;;;;;17.14;50.27;100576.91;4840764;29;19916;-77
2024/02/29 12:01:36;;;;;;;;;;;;;;;17.09;50.82;100571.69;4843980;29;19924;-78
2024/02/29 12:04:28;;;;;;;;;;;;;;;16.92;56.16;100577.59;4837347;29;19920;-79
2024/02/29 12:07:21;;;;;;;;;;;;;;;16.70;56.08;100570.09;4833055;29;19916;-79
2024/02/29 12:10:13;;;;;;;;;;;;;;;16.61;57.72;100564.78;4840712;29;19916;-79
2024/02/29 12:13:05;;;;;;;;;;;;;;;16.48;59.63;100566.03;4841275;29;19916;-80
2024/02/29 12:15:52;;;;;;;;;;;;;;;16.42;58.06;100564.72;4844969;29;19916;-79
2024/02/29 12:18:51;;;;;;;;;;;;;;;16.42;57.21;100562.78;4842348;29;20298;-78
2024/02/29 12:21:40;;;;;;;;;;;;;;;16.31;57.58;100563.69;4844457;29;19921;-79
2024/02/29 12:24:34;;;;;;;;;;;;;;;16.26;59.20;100562.00;4843964;29;19939;-78
2024/02/29 12:27:26;;;;;;;;;;;;;;;16.11;59.22;100552.66;4841582;29;20287;-79
2024/02/29 12:30:20;;;;;;;;;;;;;;;16.05;59.00;100547.81;4844860;29;19921;-79
2024/02/29 12:33:10;;;;;;;;;;;;;;;16.09;59.14;100544.00;4840731;29;19924;-79
2024/02/29 12:36:01;;;;;;;;;;;;;;;16.02;59.29;100541.09;4841010;29;19920;-79
2024/02/29 12:38:53;;;;;;;;;;;;;;;16.04;58.87;100538.78;4843789;29;19920;-79
2024/02/29 12:41:45;;;;;;;;;;;;;;;16.02;58.15;100527.38;4839455;29;19916;-80
2024/02/29 12:44:37;;;;;;;;;;;;;;;15.97;58.22;100526.84;4843211;29;19928;-79
2024/02/29 12:47:29;;;;;;;;;;;;;;;16.01;57.90;100522.22;4840085;29;19920;-79
2024/02/29 12:50:21;;;;;;;;;;;;;;;15.97;57.70;100515.88;4828677;29;19920;-77
2024/02/29 12:53:13;;;;;;;;;;;;;;;15.97;57.45;100513.13;4833899;29;20294;-80
2024/02/29 12:56:05;;;;;;;;;;;;;;;15.95;57.53;100510.72;4842589;29;19916;-79
2024/02/29 12:58:57;;;;;;;;;;;;;;;15.96;57.35;100517.81;4835352;29;19932;-80
2024/02/29 13:01:50;;;;;;;;;;;;;;;15.91;57.32;100512.59;4844022;29;19920;-78
2024/02/29 13:04:42;;;;;;;;;;;;;;;15.86;58.48;100506.59;4842199;29;19921;-78
2024/02/29 13:07:34;;;;;;;;;;;;;;;15.84;58.33;100515.19;4844066;29;19920;-78
2024/02/29 13:10:26;;;;;;;;;;;;;;;15.81;59.79;100513.94;4841124;29;20390;-79
2024/02/29 13:13:18;;;;;;;;;;;;;;;15.82;59.99;100512.00;4843527;29;19917;-79
2024/02/29 13:16:10;;;;;;;;;;;;;;;15.81;60.23;100499.44;4848344;29;19920;-79
2024/02/29 13:19:02;;;;;;;;;;;;;;;15.85;59.64;100491.31;4845441;29;19920;-78
2024/02/29 13:21:54;;;;;;;;;;;;;;;15.89;59.27;100489.44;4843304;29;20402;-78
2024/02/29 13:24:43;;;;;;;;;;;;;;;15.99;59.44;100495.19;4846769;29;19916;-78
2024/02/29 13:27:35;;;;;;;;;;;;;;;16.09;59.42;100480.91;4845007;29;19920;-79
2024/02/29 13:30:32;;;;;;;;;;;;;;;16.21;58.52;100477.22;4829481;29;19917;-78
2024/02/29 13:33:24;;;;;;;;;;;;;;;16.25;57.78;100480.88;4832641;29;20318;-78
2024/02/29 13:36:13;;;;;;;;;;;;;;;16.26;57.10;100474.22;4843786;29;19916;-78
2024/02/29 13:39:05;;;;;;;;;;;;;;;16.48;56.86;100476.25;4846879;29;19920;-79
2024/02/29 13:41:57;;;;;;;;;;;;;;;16.58;56.71;100463.91;4844937;29;19916;-78
2024/02/29 13:44:49;;;;;;;;;;;;;;;16.58;57.80;100463.91;4842698;29;19917;-78
2024/02/29 13:47:48;;;;;;;;;;;;;;;16.53;57.05;100459.50;4846039;29;19920;-78
2024/02/29 13:50:40;;;;;;;;;;;;;;;16.48;55.96;100456.25;4844379;29;20367;-78
2024/02/29 13:53:35;;;;;;;;;;;;;;;16.61;56.73;100444.78;4847136;29;20306;-78
2024/02/29 13:56:27;;;;;;;;;;;;;;;16.57;56.60;100446.63;4831637;29;19917;-78
2024/02/29 13:59:19;;;;;;;;;;;;;;;16.72;57.29;100436.75;4843282;29;19916;-77
2024/02/29 14:02:11;;;;;;;;;;;;;;;16.73;55.97;100441.09;4845351;29;19924;-78
2024/02/29 14:05:03;;;;;;;;;;;;;;;16.61;55.54;100438.50;4844379;29;19916;-78
2024/02/29 14:07:56;;;;;;;;;;;;;;;16.68;56.42;100431.22;4842554;29;20379;-78
2024/02/29 14:10:49;;;;;;;;;;;;;;;16.76;56.09;100423.88;4842462;29;19916;-78
2024/02/29 14:13:41;;;;;;;;;;;;;;;16.90;56.88;100417.88;4840362;29;19920;-78
2024/02/29 14:16:33;;;;;;;;;;;;;;;16.92;55.97;100416.34;4842385;29;19916;-78
2024/02/29 14:19:25;;;;;;;;;;;;;;;16.96;56.05;100408.97;4844399;29;19917;-77
2024/02/29 14:22:15;;;;;;;;;;;;;;;17.10;55.91;100411.19;4842633;29;19916;-80
2024/02/29 14:25:07;;;;;;;;;;;;;;;17.08;55.84;100411.53;4846148;29;19920;-78
2024/02/29 14:27:56;;;;;;;;;;;;;;;17.29;56.43;100413.06;4843175;29;19924;-78
2024/02/29 14:30:48;;;;;;;;;;;;;;;17.37;55.74;100401.03;4840331;29;19939;-78
2024/02/29 14:33:38;;;;;;;;;;;;;;;17.50;55.79;100396.91;4842454;29;19916;-78
2024/02/29 14:36:30;;;;;;;;;;;;;;;17.62;55.49;100394.00;4839738;29;19916;-77
2024/02/29 14:39:22;;;;;;;;;;;;;;;17.70;55.32;100387.41;4845440;29;19925;-78
2024/02/29 14:42:14;;;;;;;;;;;;;;;17.78;55.73;100383.59;4844233;29;19916;-79